Página principal
METAR-TAF:

METAR-TAF

Aeroportos :

Aeroporto Internacional Jinnah

Carachi, Paquistão

latitude: 24-54N, longitude: 067-08E, altura: 21 m

Observação actual do tempo

O boletim foi feito há 37 minutos, às 02:25 UTC
Vento calmo
Temperatura 25°C
Humidade 65%
Pressão 1012 hPa
Visibilidade: 3000 m
fumo

METAR: OPKC 190225Z 00000KT 3000 FU NSC 25/18 Q1012 NOSIG

Hora: 08:02 (03:02 UTC)

Previsão

O boletim foi feito há 2 horas e 32 minutos, às 00:30 UTC
Previsão válida de 19 às 03 UTC a 19 às 12 UTC
Vento 8 kt de oes-sudoeste com rajadas de 18 kt
Visibilidade: 6000 m

TAF: OPKC 190030Z 1903/1912 25008G18KT 6000 NSC

Observações e previsões do tempo de mais de 4000 aeroportos (mensagens METAR e TAF).

As estações disponíveis são os pontos amarelos e vermelhos sobre o mapa.

Mova o rato sobre o mapa para ver o nome da estação.

Depois clique no ponto para visualizar as observações e previsões meteorológicas.

Para alterar o mapa : clique nos botões verdes com uma cruz preta para aumentar o zoom; no botão verde com uma pitada de zoom; ou nas setas verdes para mapas adjacentes.


METAR-TAF: